LW4 KDWH-KBHM
Flight info
| Callsign | LW4 |
|---|---|
| Flight time | N/A |
| Altitude | 27000 |
| Route | MMALT7 LCH FISTY RUCBO MEI LYMPH |
| Aircraft | B60T/L-SDFGRY/C |
Departure
| Time | 2026-04-20 00:55 |
|---|---|
| Airport | David Wayne Hooks Memorial Airport (KDWH) |
Arrival
| Time | N/A |
|---|---|
| Airport | Birmingham-Shuttlesworth International Airport (KBHM) |
| Time | Latitude | Longitude | Altitude | Speed | Heading |
|---|---|---|---|---|---|
| 2026-04-20 00:44 | 30.07037 | -95.55292 | 157 ft | 0 kts | 173° |
| 2026-04-20 00:52 | 30.07036 | -95.55292 | 157 ft | 2 kts | 173° |
| 2026-04-20 00:52 | 30.06988 | -95.55325 | 156 ft | 11 kts | 264° |
| 2026-04-20 00:52 | 30.06987 | -95.55357 | 156 ft | 3 kts | 270° |
| 2026-04-20 00:52 | 30.06898 | -95.55428 | 154 ft | 24 kts | 166° |
| 2026-04-20 00:53 | 30.06798 | -95.55403 | 155 ft | 13 kts | 171° |
| 2026-04-20 00:53 | 30.06617 | -95.55374 | 154 ft | 38 kts | 172° |
| 2026-04-20 00:53 | 30.06471 | -95.55353 | 152 ft | 5 kts | 173° |
| 2026-04-20 00:53 | 30.06429 | -95.55348 | 152 ft | 23 kts | 176° |
| 2026-04-20 00:54 | 30.06165 | -95.55308 | 155 ft | 0 kts | 174° |
| 2026-04-20 00:54 | 30.06159 | -95.55312 | 154 ft | 0 kts | 351° |
| 2026-04-20 00:55 | 30.06369 | -95.55346 | 153 ft | 75 kts | 354° |
| 2026-04-20 00:55 | 30.07165 | -95.55457 | 351 ft | 146 kts | 354° |
| 2026-04-20 00:55 | 30.08394 | -95.55622 | 415 ft | 207 kts | 354° |
| 2026-04-20 00:55 | 30.09896 | -95.55818 | 835 ft | 214 kts | 355° |
| 2026-04-20 00:56 | 30.11383 | -95.56031 | 1518 ft | 219 kts | 356° |
| 2026-04-20 00:56 | 30.12995 | -95.56282 | 1551 ft | 239 kts | 355° |
| 2026-04-20 00:56 | 30.14555 | -95.56536 | 2287 ft | 234 kts | 355° |
| 2026-04-20 00:56 | 30.16084 | -95.56780 | 3323 ft | 209 kts | 355° |
| 2026-04-20 00:57 | 30.17620 | -95.57047 | 3666 ft | 223 kts | 354° |
| 2026-04-20 00:57 | 30.19155 | -95.57188 | 4200 ft | 230 kts | 11° |
| 2026-04-20 00:57 | 30.20605 | -95.56394 | 4326 ft | 234 kts | 47° |
| 2026-04-20 00:57 | 30.21319 | -95.54827 | 4964 ft | 213 kts | 83° |
| 2026-04-20 00:58 | 30.21128 | -95.53189 | 5268 ft | 213 kts | 113° |
| 2026-04-20 00:58 | 30.20376 | -95.51693 | 5438 ft | 211 kts | 121° |
| 2026-04-20 00:58 | 30.19707 | -95.50189 | 5165 ft | 222 kts | 105° |
| 2026-04-20 00:58 | 30.19522 | -95.48435 | 5155 ft | 208 kts | 94° |
| 2026-04-20 00:59 | 30.19378 | -95.46783 | 5120 ft | 207 kts | 101° |
| 2026-04-20 00:59 | 30.19089 | -95.45198 | 5337 ft | 195 kts | 104° |
| 2026-04-20 00:59 | 30.18754 | -95.43697 | 5594 ft | 193 kts | 105° |
| 2026-04-20 00:59 | 30.18452 | -95.42237 | 6079 ft | 183 kts | 103° |
| 2026-04-20 01:00 | 30.18210 | -95.40818 | 6557 ft | 178 kts | 101° |
| 2026-04-20 01:00 | 30.17997 | -95.39418 | 7014 ft | 176 kts | 101° |
| 2026-04-20 01:00 | 30.17783 | -95.38025 | 7459 ft | 176 kts | 101° |
| 2026-04-20 01:00 | 30.17557 | -95.36633 | 7902 ft | 177 kts | 101° |
| 2026-04-20 01:01 | 30.17326 | -95.35235 | 8352 ft | 178 kts | 101° |
| 2026-04-20 01:01 | 30.17092 | -95.33820 | 8798 ft | 181 kts | 100° |